createdAt,value
2022-09-23T09:57:32.196Z,101999.75
2022-09-23T10:02:41.481Z,101998.59
2022-09-23T10:07:45.170Z,101998.12
2022-09-23T10:12:54.875Z,101991.62
2022-09-23T10:17:58.805Z,101988.81
2022-09-23T10:23:31.280Z,101975.97
2022-09-23T10:33:50.279Z,101972.44
2022-09-23T10:39:08.468Z,101960.13
2022-09-23T10:44:27.443Z,101960.53
2022-09-23T10:49:48.339Z,101956.00
2022-09-23T11:00:44.951Z,101950.69
2022-09-23T11:11:32.993Z,101935.31
2022-09-23T11:22:31.569Z,101920.47
2022-09-23T11:38:46.620Z,101896.84
2022-09-23T11:44:02.508Z,101891.47
2022-09-23T11:49:13.146Z,101890.87
2022-09-23T11:59:58.532Z,101858.88
2022-09-23T12:10:40.554Z,101853.13
2022-09-23T12:21:49.112Z,101844.00
2022-09-23T12:26:54.595Z,101844.88
2022-09-23T12:31:58.317Z,101832.88
2022-09-23T12:37:09.725Z,101827.63
2022-09-23T12:42:19.145Z,101817.59
2022-09-23T12:47:39.248Z,101822.84
2022-09-23T12:52:48.313Z,101817.28
2022-09-23T12:57:51.100Z,101808.62
2022-09-23T13:02:57.762Z,101810.31
2022-09-23T13:08:09.503Z,101799.50
2022-09-23T13:13:22.734Z,101803.94
2022-09-23T13:18:46.815Z,101789.16
2022-09-23T13:30:00.915Z,101770.00
2022-09-23T13:35:07.193Z,101770.78
2022-09-23T13:40:18.172Z,101768.75
2022-09-23T13:45:28.856Z,101759.03
2022-09-23T13:50:35.122Z,101758.19
2022-09-23T13:55:39.890Z,101754.03
2022-09-23T14:00:50.256Z,101738.75
2022-09-23T14:05:55.620Z,101740.12
2022-09-23T14:11:00.971Z,101737.91
2022-09-23T14:48:11.318Z,101715.25
2022-09-23T14:53:38.908Z,101711.25
2022-09-23T15:04:15.187Z,101702.53
2022-09-23T15:15:00.228Z,101699.81
2022-09-23T15:20:06.450Z,101709.62
2022-09-23T15:25:16.571Z,101706.72
2022-09-23T15:35:50.249Z,101699.88
2022-09-23T15:40:53.721Z,101696.50
2022-09-23T15:45:59.697Z,101694.72
2022-09-23T15:51:10.237Z,101691.28
2022-09-23T15:56:13.291Z,101691.13
2022-09-23T16:01:20.502Z,101686.00
2022-09-23T16:06:28.680Z,101690.44
2022-09-23T16:16:54.850Z,101684.31
2022-09-23T16:27:26.402Z,101677.97
2022-09-23T16:32:29.349Z,101673.06
2022-09-23T16:37:32.289Z,101679.91
2022-09-23T16:53:32.877Z,101673.44
2022-09-23T16:58:36.846Z,101675.06
2022-09-23T17:09:05.647Z,101678.59
2022-09-23T17:14:10.416Z,101670.81
2022-09-23T17:19:13.562Z,101675.84
2022-09-23T17:24:23.976Z,101670.66
2022-09-23T17:29:27.667Z,101671.94
2022-09-23T17:34:30.441Z,101672.62
2022-09-23T17:39:38.776Z,101668.84
2022-09-23T17:50:03.122Z,101659.69
2022-09-23T17:55:07.178Z,101662.94
2022-09-23T18:00:11.263Z,101657.56
2022-09-23T18:10:43.710Z,101658.22
2022-09-23T18:15:46.497Z,101658.66
2022-09-23T18:26:28.776Z,101663.53
2022-09-23T18:36:41.661Z,101654.75
2022-09-23T18:47:11.522Z,101657.84
2022-09-23T18:52:14.469Z,101652.88
2022-09-23T18:57:18.236Z,101656.13
2022-09-23T19:02:26.323Z,101648.38
2022-09-23T19:07:29.165Z,101654.34
2022-09-23T19:17:55.077Z,101648.78
2022-09-23T19:22:57.793Z,101658.13
2022-09-23T19:28:00.635Z,101658.13
2022-09-23T19:38:35.207Z,101644.69
2022-09-23T19:43:38.057Z,101641.41
2022-09-23T19:54:02.632Z,101640.16
2022-09-23T19:59:07.353Z,101643.97
2022-09-23T20:04:10.282Z,101638.53
2022-09-23T20:09:19.402Z,101631.38
2022-09-23T20:14:22.285Z,101623.19
2022-09-23T20:19:25.077Z,101627.44
2022-09-23T20:24:34.148Z,101622.41
2022-09-23T20:29:37.412Z,101615.66
2022-09-23T20:34:40.411Z,101619.25
2022-09-23T20:39:49.344Z,101610.81
2022-09-23T20:56:09.024Z,101602.25
2022-09-23T21:06:38.686Z,101600.91
2022-09-23T21:11:41.754Z,101603.88
2022-09-23T21:27:32.670Z,101602.00
2022-09-23T21:32:35.906Z,101598.19
2022-09-23T21:37:38.668Z,101599.03
2022-09-23T21:42:46.762Z,101595.03
2022-09-23T21:47:49.811Z,101588.28
2022-09-23T21:52:53.853Z,101579.00
2022-09-23T21:58:02.177Z,101583.44
2022-09-23T22:13:46.297Z,101590.13
2022-09-23T22:18:51.660Z,101584.47
2022-09-23T22:23:55.689Z,101582.13
2022-09-23T22:29:06.495Z,101584.41
2022-09-23T22:34:20.362Z,101572.00
2022-09-23T22:39:32.326Z,101568.66
2022-09-23T22:44:40.658Z,101559.63
2022-09-23T22:49:44.388Z,101559.81
2022-09-23T23:01:28.586Z,101553.50
2022-09-23T23:43:50.276Z,101537.84
2022-09-23T23:54:19.890Z,101526.31
2022-09-23T23:59:22.868Z,101533.84
